createdAt,value
2022-09-25T00:01:06.273Z,1.17
2022-09-25T00:03:34.290Z,1.00
2022-09-25T00:06:04.153Z,0.77
2022-09-25T00:08:31.945Z,1.05
2022-09-25T00:10:59.837Z,1.30
2022-09-25T00:13:28.039Z,1.17
2022-09-25T00:16:00.164Z,1.50
2022-09-25T00:18:45.744Z,1.08
2022-09-25T00:21:16.722Z,1.67
2022-09-25T00:23:45.715Z,1.50
2022-09-25T00:26:15.074Z,2.08
2022-09-25T00:28:43.930Z,1.50
2022-09-25T00:31:19.822Z,1.60
2022-09-25T00:33:47.929Z,1.83
2022-09-25T00:36:15.877Z,1.25
2022-09-25T00:38:46.201Z,1.55
2022-09-25T00:41:14.149Z,1.23
2022-09-25T00:43:44.535Z,1.23
2022-09-25T00:46:17.736Z,1.60
2022-09-25T00:48:51.011Z,1.50
2022-09-25T00:51:22.890Z,1.55
2022-09-25T00:53:51.416Z,1.25
2022-09-25T00:56:19.681Z,1.20
2022-09-25T00:58:48.732Z,1.42
2022-09-25T01:01:18.716Z,1.70
2022-09-25T01:03:46.771Z,1.45
2022-09-25T01:06:16.379Z,1.40
2022-09-25T01:08:46.161Z,1.50
2022-09-25T01:11:14.001Z,1.23
2022-09-25T01:13:41.930Z,1.15
2022-09-25T01:16:17.237Z,1.27
2022-09-25T01:19:01.876Z,1.40
2022-09-25T01:21:37.770Z,1.20
2022-09-25T01:24:24.449Z,1.80
2022-09-25T01:27:13.234Z,2.00
2022-09-25T01:29:48.861Z,1.90
2022-09-25T01:32:22.152Z,1.65
2022-09-25T01:34:57.883Z,1.90
2022-09-25T01:37:29.893Z,1.30
2022-09-25T01:40:05.482Z,1.30
2022-09-25T01:42:38.960Z,1.20
2022-09-25T01:45:13.052Z,1.20
2022-09-25T01:47:41.991Z,1.40
2022-09-25T01:50:14.774Z,1.10
2022-09-25T01:52:47.682Z,1.35
2022-09-25T01:55:22.296Z,1.30
2022-09-25T01:57:54.861Z,1.42
2022-09-25T02:00:26.069Z,1.40
2022-09-25T02:02:57.584Z,1.70
2022-09-25T02:05:31.288Z,1.80
2022-09-25T02:08:02.955Z,1.95
2022-09-25T02:10:35.105Z,1.48
2022-09-25T02:13:08.466Z,1.63
2022-09-25T02:15:41.304Z,1.58
2022-09-25T02:18:29.462Z,1.60
2022-09-25T02:21:03.244Z,1.55
2022-09-25T02:23:42.573Z,1.40
2022-09-25T02:26:17.476Z,1.70
2022-09-25T02:28:45.354Z,1.75
2022-09-25T02:31:16.846Z,1.45
2022-09-25T02:33:45.503Z,1.48
2022-09-25T02:36:19.071Z,1.30
2022-09-25T02:38:49.906Z,1.25
2022-09-25T02:41:26.268Z,2.00
2022-09-25T02:44:05.400Z,1.10
2022-09-25T02:46:44.190Z,1.25
2022-09-25T02:49:19.727Z,1.42
2022-09-25T02:51:55.834Z,1.73
2022-09-25T02:54:30.764Z,2.17
2022-09-25T02:57:07.187Z,2.00
2022-09-25T02:59:39.209Z,1.10
2022-09-25T03:02:11.748Z,1.33
2022-09-25T03:04:41.152Z,1.58
2022-09-25T03:07:09.481Z,1.80
2022-09-25T03:09:39.266Z,1.95
2022-09-25T03:12:07.527Z,1.40
2022-09-25T03:14:35.580Z,1.83
2022-09-25T03:17:06.636Z,2.00
2022-09-25T03:19:35.977Z,2.10
2022-09-25T03:22:03.910Z,1.90
2022-09-25T03:24:31.758Z,1.77
2022-09-25T03:26:59.938Z,1.63
2022-09-25T03:29:29.823Z,2.60
2022-09-25T03:31:57.677Z,2.30
2022-09-25T03:34:25.711Z,1.98
2022-09-25T03:36:54.948Z,1.70
2022-09-25T03:39:23.075Z,1.95
2022-09-25T03:41:51.192Z,1.70
2022-09-25T03:44:19.010Z,2.03
2022-09-25T03:46:46.838Z,1.30
2022-09-25T03:49:14.700Z,1.13
2022-09-25T03:51:43.084Z,1.10
2022-09-25T03:54:12.452Z,1.20
2022-09-25T03:56:40.682Z,1.27
2022-09-25T03:59:08.601Z,3.10
2022-09-25T04:01:37.009Z,4.20
2022-09-25T04:04:05.118Z,2.08
2022-09-25T04:06:33.034Z,2.47
2022-09-25T04:09:00.895Z,2.72
2022-09-25T04:11:30.296Z,1.80
2022-09-25T04:13:58.156Z,1.63
2022-09-25T04:16:27.390Z,1.50
2022-09-25T04:18:55.334Z,1.75
2022-09-25T04:21:23.134Z,1.30
2022-09-25T04:24:05.408Z,1.40
2022-09-25T04:26:35.310Z,1.80
2022-09-25T04:29:03.802Z,1.80
2022-09-25T04:31:32.446Z,1.70
2022-09-25T04:33:59.433Z,1.75
2022-09-25T04:36:27.432Z,1.67
2022-09-25T04:38:55.397Z,1.40
2022-09-25T04:41:23.554Z,1.50
2022-09-25T04:43:53.006Z,1.30
2022-09-25T04:46:22.628Z,1.77
2022-09-25T04:48:51.748Z,1.05
2022-09-25T04:51:20.024Z,1.30
2022-09-25T04:53:47.939Z,2.00
2022-09-25T04:56:17.049Z,1.88
2022-09-25T04:58:46.581Z,1.60
2022-09-25T05:01:16.948Z,1.80
2022-09-25T05:03:45.079Z,1.13
2022-09-25T05:06:13.056Z,1.10
2022-09-25T05:08:40.930Z,1.20
2022-09-25T05:11:08.948Z,1.08
2022-09-25T05:13:36.966Z,1.25
2022-09-25T05:16:04.942Z,0.90
2022-09-25T05:18:34.373Z,1.08
2022-09-25T05:21:05.479Z,1.00
2022-09-25T05:23:33.432Z,0.90
2022-09-25T05:26:02.274Z,1.45
2022-09-25T05:28:30.767Z,1.20
2022-09-25T05:31:03.448Z,0.90
2022-09-25T05:33:31.979Z,0.88
2022-09-25T05:36:03.219Z,1.02
2022-09-25T05:38:34.355Z,0.90
2022-09-25T05:41:05.039Z,1.02
2022-09-25T05:43:33.678Z,1.35
2022-09-25T05:46:01.605Z,1.23
2022-09-25T05:48:29.532Z,1.17
2022-09-25T05:50:58.704Z,0.93
2022-09-25T05:53:28.437Z,1.15
2022-09-25T05:55:59.262Z,1.00
2022-09-25T05:58:27.999Z,0.80
2022-09-25T06:00:56.627Z,0.93
2022-09-25T06:03:24.544Z,0.98
2022-09-25T06:05:52.631Z,1.58
2022-09-25T06:08:21.018Z,1.38
2022-09-25T06:10:55.166Z,1.48
2022-09-25T06:13:24.567Z,1.60
2022-09-25T06:15:53.903Z,1.13
2022-09-25T06:18:23.316Z,0.98
2022-09-25T06:20:59.837Z,1.15
2022-09-25T06:23:27.709Z,1.40
2022-09-25T06:26:01.808Z,0.90
2022-09-25T06:28:30.962Z,1.55
2022-09-25T06:31:01.583Z,0.98
2022-09-25T06:33:29.786Z,0.68
2022-09-25T06:35:57.679Z,1.13
2022-09-25T06:38:26.072Z,1.17
2022-09-25T06:40:54.958Z,0.90
2022-09-25T06:43:27.876Z,0.90
2022-09-25T06:45:55.845Z,1.30
2022-09-25T06:48:23.720Z,0.90
2022-09-25T06:50:53.677Z,0.93
2022-09-25T06:53:23.699Z,0.98
2022-09-25T06:55:51.673Z,1.10
2022-09-25T06:58:22.106Z,1.30
2022-09-25T07:00:53.668Z,0.80
2022-09-25T07:03:39.754Z,0.70
2022-09-25T07:06:10.747Z,1.10
2022-09-25T07:08:39.431Z,1.02
2022-09-25T07:11:08.055Z,0.98
2022-09-25T07:13:37.130Z,1.15
2022-09-25T07:16:08.332Z,0.90
2022-09-25T07:18:36.425Z,0.82
2022-09-25T07:21:07.753Z,0.88
2022-09-25T07:23:36.193Z,1.83
2022-09-25T07:26:09.483Z,1.08
2022-09-25T07:28:37.878Z,1.08
2022-09-25T07:31:19.250Z,1.05
2022-09-25T07:33:47.511Z,0.75
2022-09-25T07:36:17.284Z,1.10
2022-09-25T07:38:46.222Z,1.38
2022-09-25T07:41:14.427Z,1.00
2022-09-25T07:43:43.665Z,0.80
2022-09-25T07:46:12.345Z,1.17
2022-09-25T07:48:42.501Z,0.90
2022-09-25T07:51:12.764Z,1.33
2022-09-25T07:53:42.749Z,0.93
2022-09-25T07:56:12.137Z,1.42
2022-09-25T07:58:40.371Z,1.48
2022-09-25T08:01:11.068Z,1.48
2022-09-25T08:03:39.339Z,0.95
2022-09-25T08:06:11.786Z,1.25
2022-09-25T08:08:40.787Z,1.40
2022-09-25T08:11:11.359Z,1.10
2022-09-25T08:13:40.375Z,0.80
2022-09-25T08:16:11.488Z,0.80
2022-09-25T08:18:41.459Z,0.95
2022-09-25T08:21:14.455Z,0.95
2022-09-25T08:23:47.481Z,0.60
2022-09-25T08:26:16.219Z,0.63
2022-09-25T08:28:45.111Z,1.20
2022-09-25T08:31:14.565Z,1.35
2022-09-25T08:33:45.863Z,0.85
2022-09-25T08:36:16.138Z,0.60
2022-09-25T08:38:44.374Z,0.70
2022-09-25T08:41:18.866Z,0.77
2022-09-25T08:43:56.135Z,0.75
2022-09-25T08:46:46.422Z,0.80
2022-09-25T08:49:15.448Z,0.68
2022-09-25T08:51:50.048Z,0.85
2022-09-25T08:54:23.734Z,0.40
2022-09-25T08:56:53.703Z,0.40
2022-09-25T08:59:28.560Z,0.57
2022-09-25T09:02:00.299Z,0.68
2022-09-25T09:04:32.005Z,0.65
2022-09-25T09:07:26.275Z,0.50
2022-09-25T09:10:04.245Z,0.52
2022-09-25T09:12:40.167Z,0.43
2022-09-25T09:15:22.517Z,0.68
2022-09-25T09:17:54.349Z,0.57
2022-09-25T09:20:29.308Z,0.63
2022-09-25T09:22:59.907Z,0.77
2022-09-25T09:25:32.389Z,0.77
2022-09-25T09:28:25.359Z,0.80
2022-09-25T09:31:02.099Z,1.58
2022-09-25T09:33:44.967Z,0.75
2022-09-25T09:36:21.044Z,0.60
2022-09-25T09:38:58.685Z,0.55
2022-09-25T09:41:38.634Z,0.43
2022-09-25T09:44:23.039Z,0.80
2022-09-25T09:46:59.490Z,0.55
2022-09-25T09:49:34.463Z,0.45
2022-09-25T09:52:09.120Z,0.43
2022-09-25T09:54:44.522Z,0.57
2022-09-25T09:57:17.128Z,0.28
2022-09-25T09:59:50.216Z,0.85
2022-09-25T10:02:41.278Z,0.45
2022-09-25T10:05:39.028Z,0.28
2022-09-25T10:08:06.921Z,0.47
2022-09-25T10:10:38.604Z,0.40
2022-09-25T10:13:14.679Z,0.35
2022-09-25T10:15:46.102Z,0.45
2022-09-25T10:18:15.705Z,0.40
2022-09-25T10:20:47.410Z,0.40
2022-09-25T10:23:26.057Z,0.50
2022-09-25T10:26:45.569Z,0.30
2022-09-25T10:29:37.071Z,0.30
2022-09-25T10:32:05.730Z,0.47
2022-09-25T10:34:35.340Z,0.45
2022-09-25T10:37:20.316Z,0.40
2022-09-25T10:40:02.796Z,0.30
2022-09-25T10:42:38.805Z,0.20
2022-09-25T10:45:32.383Z,0.32
2022-09-25T10:48:18.069Z,0.32
2022-09-25T10:51:08.282Z,0.50
2022-09-25T10:53:37.095Z,0.40
2022-09-25T10:56:07.441Z,0.10
2022-09-25T10:58:41.448Z,0.30
2022-09-25T11:01:13.788Z,0.40
2022-09-25T11:03:55.115Z,0.30
2022-09-25T11:06:26.096Z,0.30
2022-09-25T11:09:05.302Z,0.40
2022-09-25T11:11:33.473Z,0.75
2022-09-25T11:14:04.678Z,0.20
2022-09-25T11:16:49.475Z,0.60
2022-09-25T11:19:22.489Z,0.25
2022-09-25T11:22:00.118Z,0.43
2022-09-25T11:24:40.729Z,0.50
2022-09-25T11:27:14.181Z,0.95
2022-09-25T11:29:50.278Z,0.50
2022-09-25T11:32:27.627Z,0.40
2022-09-25T11:35:05.096Z,0.40
2022-09-25T11:37:40.599Z,0.38
2022-09-25T11:40:57.850Z,0.30
2022-09-25T11:43:39.056Z,0.38
2022-09-25T11:46:15.428Z,0.68
2022-09-25T11:48:55.543Z,0.30
2022-09-25T11:51:45.795Z,0.35
2022-09-25T11:54:53.468Z,0.28
2022-09-25T11:57:34.265Z,0.30
2022-09-25T12:00:22.151Z,0.20
2022-09-25T12:03:11.834Z,0.63
2022-09-25T12:05:54.596Z,0.20
2022-09-25T12:08:41.726Z,0.35
2022-09-25T12:11:20.249Z,0.20
2022-09-25T12:13:56.987Z,0.40
2022-09-25T12:16:37.146Z,0.40
2022-09-25T12:19:23.589Z,0.55
2022-09-25T12:22:01.533Z,0.22
2022-09-25T12:24:45.264Z,0.40
2022-09-25T12:27:21.035Z,0.70
2022-09-25T12:30:06.794Z,0.40
2022-09-25T12:32:54.992Z,0.30
2022-09-25T12:35:35.175Z,0.30
2022-09-25T12:38:11.185Z,0.52
2022-09-25T12:40:44.848Z,0.60
2022-09-25T12:43:26.125Z,0.50
2022-09-25T12:45:59.166Z,0.30
2022-09-25T12:48:34.530Z,0.43
2022-09-25T12:51:08.194Z,0.40
2022-09-25T12:53:41.413Z,0.30
2022-09-25T12:56:15.414Z,0.30
2022-09-25T12:59:05.299Z,0.40
2022-09-25T13:01:41.879Z,0.28
2022-09-25T13:04:35.314Z,0.20
2022-09-25T13:07:10.141Z,0.28
2022-09-25T13:09:44.883Z,0.20
2022-09-25T13:12:22.739Z,0.38
2022-09-25T13:14:54.160Z,0.20
2022-09-25T13:17:22.847Z,0.30
2022-09-25T13:19:50.815Z,0.63
2022-09-25T13:22:24.678Z,0.63
2022-09-25T13:24:59.235Z,0.50
2022-09-25T13:27:28.505Z,0.93
2022-09-25T13:30:01.810Z,0.30
2022-09-25T13:32:34.756Z,0.60
2022-09-25T13:35:05.809Z,0.20
2022-09-25T13:37:36.571Z,0.40
2022-09-25T13:40:35.526Z,0.50
2022-09-25T13:43:21.514Z,0.30
2022-09-25T13:46:10.142Z,0.30
2022-09-25T13:48:38.724Z,0.50
2022-09-25T13:51:35.047Z,0.35
2022-09-25T13:54:04.560Z,0.65
2022-09-25T13:56:49.507Z,0.38
2022-09-25T13:59:39.834Z,0.22
2022-09-25T14:02:43.756Z,0.30
2022-09-25T14:05:18.336Z,0.22
2022-09-25T14:07:48.619Z,0.40
2022-09-25T14:10:19.002Z,0.20
2022-09-25T14:12:50.624Z,0.40
2022-09-25T14:15:26.539Z,0.80
2022-09-25T14:17:57.272Z,0.70
2022-09-25T14:20:33.384Z,0.60
2022-09-25T14:23:05.924Z,1.13
2022-09-25T14:25:37.300Z,0.50
2022-09-25T14:28:20.740Z,0.60
2022-09-25T14:31:15.055Z,0.43
2022-09-25T14:34:06.240Z,0.45
2022-09-25T14:36:43.848Z,0.20
2022-09-25T14:39:30.125Z,0.30
2022-09-25T14:42:24.987Z,0.30
2022-09-25T14:45:25.733Z,0.30
2022-09-25T14:48:00.486Z,0.90
2022-09-25T14:50:32.843Z,0.50
2022-09-25T14:53:08.306Z,0.52
2022-09-25T14:55:39.166Z,0.38
2022-09-25T14:58:10.562Z,0.20
2022-09-25T15:00:46.767Z,0.20
2022-09-25T15:03:19.859Z,0.17
2022-09-25T15:05:49.138Z,0.30
2022-09-25T15:08:24.076Z,0.28
2022-09-25T15:11:03.287Z,0.20
2022-09-25T15:13:34.458Z,0.10
2022-09-25T15:16:20.902Z,0.22
2022-09-25T15:18:54.784Z,0.40
2022-09-25T15:21:27.751Z,0.20
2022-09-25T15:23:58.585Z,0.30
2022-09-25T15:26:29.022Z,0.10
2022-09-25T15:28:57.438Z,0.35
2022-09-25T15:31:25.525Z,0.17
2022-09-25T15:34:11.495Z,0.40
2022-09-25T15:36:39.729Z,0.38
2022-09-25T15:39:14.366Z,0.30
2022-09-25T15:41:44.269Z,0.30
2022-09-25T15:44:20.494Z,0.40
2022-09-25T15:46:50.789Z,0.45
2022-09-25T15:49:26.828Z,0.45
2022-09-25T15:52:01.471Z,0.65
2022-09-25T15:54:35.987Z,0.30
2022-09-25T15:57:07.130Z,0.20
2022-09-25T16:00:01.254Z,0.50
2022-09-25T16:02:52.020Z,0.63
2022-09-25T16:05:28.413Z,0.43
2022-09-25T16:08:17.138Z,0.38
2022-09-25T16:10:50.165Z,0.22
2022-09-25T16:13:23.789Z,0.50
2022-09-25T16:15:53.098Z,0.40
2022-09-25T16:18:35.258Z,0.40
2022-09-25T16:21:22.131Z,0.30
2022-09-25T16:23:56.560Z,0.40
2022-09-25T16:26:27.818Z,0.25
2022-09-25T16:29:05.794Z,0.40
2022-09-25T16:31:36.290Z,0.40
2022-09-25T16:34:05.650Z,0.45
2022-09-25T16:36:42.211Z,0.57
2022-09-25T16:39:24.634Z,0.40
2022-09-25T16:41:53.235Z,0.50
2022-09-25T16:44:23.158Z,0.38
2022-09-25T16:47:14.279Z,0.47
2022-09-25T16:49:46.080Z,0.52
2022-09-25T16:52:26.286Z,0.63
2022-09-25T16:54:56.777Z,0.40
2022-09-25T16:57:27.782Z,0.30
2022-09-25T16:59:55.935Z,1.38
2022-09-25T17:02:33.279Z,1.63
2022-09-25T17:05:03.810Z,0.60
2022-09-25T17:07:33.254Z,0.32
2022-09-25T17:10:02.261Z,1.05
2022-09-25T17:12:32.514Z,0.65
2022-09-25T17:15:00.828Z,0.40
2022-09-25T17:17:29.704Z,0.70
2022-09-25T17:19:57.681Z,0.50
2022-09-25T17:22:31.141Z,0.60
2022-09-25T17:25:34.958Z,1.20
2022-09-25T17:28:03.423Z,0.95
2022-09-25T17:30:31.382Z,0.98
2022-09-25T17:32:59.297Z,0.63
2022-09-25T17:35:38.038Z,0.82
2022-09-25T17:38:06.110Z,0.50
2022-09-25T17:40:35.944Z,0.50
2022-09-25T17:43:06.067Z,0.65
2022-09-25T17:45:48.699Z,0.65
2022-09-25T17:48:18.873Z,1.17
2022-09-25T17:50:47.050Z,0.70
2022-09-25T17:53:18.983Z,0.75
2022-09-25T17:55:53.424Z,0.70
2022-09-25T17:58:23.581Z,0.60
2022-09-25T18:00:52.438Z,0.80
2022-09-25T18:03:22.538Z,1.05
2022-09-25T18:05:50.567Z,1.00
2022-09-25T18:08:19.043Z,1.25
2022-09-25T18:10:49.918Z,0.68
2022-09-25T18:13:20.396Z,1.00
2022-09-25T18:15:50.803Z,1.25
2022-09-25T18:18:18.729Z,0.90
2022-09-25T18:21:08.880Z,1.15
2022-09-25T18:23:38.586Z,0.80
2022-09-25T18:26:10.137Z,1.30
2022-09-25T18:28:38.588Z,0.90
2022-09-25T18:31:07.335Z,1.60
2022-09-25T18:33:35.345Z,1.40
2022-09-25T18:36:03.383Z,1.75
2022-09-25T18:38:31.308Z,1.70
2022-09-25T18:41:02.240Z,1.98
2022-09-25T18:43:31.850Z,1.10
2022-09-25T18:46:00.866Z,1.25
2022-09-25T18:48:29.299Z,1.05
2022-09-25T18:50:57.145Z,1.50
2022-09-25T18:53:25.115Z,1.20
2022-09-25T18:55:54.900Z,1.15
2022-09-25T18:58:23.343Z,1.30
2022-09-25T19:00:53.142Z,1.00
2022-09-25T19:03:21.078Z,1.40
2022-09-25T19:05:58.103Z,1.20
2022-09-25T19:08:26.307Z,1.05
2022-09-25T19:10:54.177Z,0.90
2022-09-25T19:13:22.188Z,0.60
2022-09-25T19:15:50.181Z,0.70
2022-09-25T19:18:19.514Z,0.80
2022-09-25T19:20:51.831Z,0.93
2022-09-25T19:23:20.169Z,1.27
2022-09-25T19:25:56.315Z,1.05
2022-09-25T19:28:24.679Z,0.98
2022-09-25T19:30:59.982Z,0.90
2022-09-25T19:33:32.334Z,0.85
2022-09-25T19:36:01.178Z,1.20
2022-09-25T19:38:33.644Z,0.82
2022-09-25T19:41:02.438Z,0.98
2022-09-25T19:43:34.816Z,1.10
2022-09-25T19:46:04.519Z,1.35
2022-09-25T19:48:36.037Z,1.20
2022-09-25T19:51:07.402Z,1.42
2022-09-25T19:53:35.851Z,0.90
2022-09-25T19:56:03.858Z,1.30
2022-09-25T19:58:36.302Z,0.95
2022-09-25T20:01:04.847Z,1.17
2022-09-25T20:03:36.831Z,1.30
2022-09-25T20:06:05.854Z,0.95
2022-09-25T20:08:34.221Z,0.82
2022-09-25T20:11:10.924Z,1.20
2022-09-25T20:13:39.820Z,1.10
2022-09-25T20:16:09.227Z,1.45
2022-09-25T20:18:38.932Z,1.27
2022-09-25T20:21:08.510Z,0.93
2022-09-25T20:23:36.811Z,1.65
2022-09-25T20:26:09.709Z,0.80
2022-09-25T20:28:38.080Z,1.00
2022-09-25T20:31:07.340Z,0.63
2022-09-25T20:33:36.383Z,0.93
2022-09-25T20:36:07.875Z,1.13
2022-09-25T20:38:37.033Z,1.00
2022-09-25T20:41:06.528Z,1.10
2022-09-25T20:43:34.964Z,0.93
2022-09-25T20:46:04.885Z,0.82
2022-09-25T20:48:36.275Z,0.98
2022-09-25T20:51:06.692Z,0.73
2022-09-25T20:53:34.830Z,0.90
2022-09-25T20:56:06.329Z,0.50
2022-09-25T20:58:34.311Z,0.68
2022-09-25T21:01:03.483Z,1.00
2022-09-25T21:03:32.179Z,1.00
2022-09-25T21:06:02.184Z,0.90
2022-09-25T21:08:32.304Z,1.60
2022-09-25T21:11:01.780Z,1.58
2022-09-25T21:13:30.028Z,1.10
2022-09-25T21:16:05.546Z,1.40
2022-09-25T21:18:35.338Z,0.98
2022-09-25T21:21:04.121Z,0.90
2022-09-25T21:23:33.979Z,0.98
2022-09-25T21:26:07.278Z,1.45
2022-09-25T21:28:35.448Z,1.20
2022-09-25T21:31:05.542Z,1.05
2022-09-25T21:33:33.788Z,1.65
2022-09-25T21:36:02.260Z,1.40
2022-09-25T21:38:31.395Z,1.20
2022-09-25T21:41:03.844Z,1.40
2022-09-25T21:43:33.166Z,1.27
2022-09-25T21:46:02.689Z,1.13
2022-09-25T21:48:31.262Z,0.95
2022-09-25T21:50:59.841Z,1.25
2022-09-25T21:53:28.058Z,1.00
2022-09-25T21:56:03.050Z,1.42
2022-09-25T21:58:31.591Z,1.00
2022-09-25T22:01:07.760Z,1.00
2022-09-25T22:03:36.775Z,1.40
2022-09-25T22:06:08.625Z,0.85
2022-09-25T22:08:37.609Z,1.00
2022-09-25T22:11:08.272Z,1.00
2022-09-25T22:13:38.061Z,1.30
2022-09-25T22:16:10.808Z,1.33
2022-09-25T22:18:43.649Z,0.95
2022-09-25T22:21:12.708Z,0.93
2022-09-25T22:23:40.804Z,1.15
2022-09-25T22:26:10.530Z,0.82
2022-09-25T22:28:38.955Z,0.98
2022-09-25T22:31:07.891Z,1.30
2022-09-25T22:33:36.154Z,1.00
2022-09-25T22:36:06.245Z,0.90
2022-09-25T22:38:35.340Z,0.88
2022-09-25T22:41:04.729Z,0.95
2022-09-25T22:43:34.339Z,0.70
2022-09-25T22:46:02.492Z,0.90
2022-09-25T22:48:31.082Z,0.90
2022-09-25T22:51:02.048Z,0.80
2022-09-25T22:53:31.654Z,0.85
2022-09-25T22:56:09.622Z,0.63
2022-09-25T22:58:38.962Z,0.75
2022-09-25T23:01:10.225Z,1.00
2022-09-25T23:03:38.286Z,1.00
2022-09-25T23:06:06.780Z,0.80
2022-09-25T23:08:35.036Z,0.77
2022-09-25T23:11:07.461Z,0.90
2022-09-25T23:13:37.355Z,0.52
2022-09-25T23:16:09.237Z,0.90
2022-09-25T23:18:38.464Z,0.43
2022-09-25T23:21:06.548Z,0.70
2022-09-25T23:23:34.464Z,0.90
2022-09-25T23:26:06.142Z,0.50
2022-09-25T23:28:35.221Z,0.77
2022-09-25T23:31:09.702Z,0.95
2022-09-25T23:33:38.086Z,0.80
2022-09-25T23:36:07.487Z,0.43
2022-09-25T23:38:35.729Z,0.63
2022-09-25T23:41:04.230Z,0.45
2022-09-25T23:43:32.123Z,0.50
2022-09-25T23:46:00.309Z,0.45
2022-09-25T23:48:29.665Z,0.57
2022-09-25T23:50:57.470Z,0.40
2022-09-25T23:53:25.667Z,0.65
2022-09-25T23:55:53.674Z,0.90
2022-09-25T23:58:21.494Z,0.70
